Larry J. Hebert — WDF5953 — position and weather

sailwx.info

Track history (hours):
 
Tides and Currents Weather Stations Pressure Air Temp Water Temp Dewpoint Dewpoint Depression Visibility Wind Speed Wind Dir Waves Ship Positions

Larry J. Hebert

Owner: Gulf Coast Tugs, Inc., Larose, LA. More information available from US FCC via Universal Licensing System and Coast Guard Vessel Documentation Center.

Last reported at 2017-Dec-15 17:41 UTC. Time now 2017-Dec-15 18:16 UTC.
Position N 38°52' W 074°54'.

Length 28 m; draft 2.3 m.

Type: Tug. MMSI: 367469050.

Date/timePositionNaut miles runAvg speedWind from/ knotsBaromVisibWave heightAir tempDewpointWater temp
2017-Dec-15 17:41N 38°52' W 074°54'2 9.9
2017-Dec-15 17:28N 38°54' W 074°52'6 9.8
2017-Dec-15 16:49N 38°59' W 074°47'3 9.7
2017-Dec-15 16:30N 39°01' W 074°45'12 9.6
2017-Dec-15 15:14N 39°12' W 074°37'27 9.6
2017-Dec-15 12:24N 39°32' W 074°13'4 9.8
2017-Dec-15 12:00N 39°35' W 074°10'5 9.9
2017-Dec-15 11:30N 39°40' W 074°08'5 9.8
2017-Dec-15 11:00N 39°44' W 074°05'5 9.7
2017-Dec-15 10:30N 39°49' W 074°04'5 9.9
2017-Dec-15 09:58N 39°54' W 074°03'26 9.7
2017-Dec-15 07:14N 40°20' W 073°56'410.0
2017-Dec-15 06:47N 40°24' W 073°55'3 9.6
2017-Dec-15 06:28N 40°28' W 073°55'4 9.7
2017-Dec-15 06:00N 40°31' W 073°59'510.5
2017-Dec-15 05:30N 40°35' W 074°02'4 8.9
2017-Dec-15 05:00N 40°39' W 074°06'1 1.1
2017-Dec-15 04:30N 40°39' W 074°07'0 0.1
2017-Dec-15 04:00N 40°39' W 074°07'0 0.0
2017-Dec-15 02:30N 40°39' W 074°07'2 1.0
2017-Dec-15 01:00N 40°38' W 074°09'0 0.0
2017-Dec-15 00:30N 40°38' W 074°09'0 0.0
2017-Dec-14 18:30N 40°38' W 074°09'0 0.0
2017-Dec-14 18:00N 40°38' W 074°09'0 0.0
2017-Dec-14 17:30N 40°38' W 074°09'0 0.0
2017-Dec-14 17:00N 40°38' W 074°09'0 0.0
2017-Dec-14 16:30N 40°38' W 074°09'0 0.0
2017-Dec-14 15:59N 40°38' W 074°09'0 0.0
2017-Dec-14 15:00N 40°38' W 074°09'0 0.0
2017-Dec-14 14:30N 40°38' W 074°09'0 0.0
2017-Dec-14 14:00N 40°38' W 074°09'0 0.0
2017-Dec-14 13:30N 40°38' W 074°09'0 0.0
2017-Dec-14 13:00N 40°38' W 074°09'0 0.0
2017-Dec-14 12:29N 40°38' W 074°09'0 0.0
2017-Dec-14 12:00N 40°38' W 074°09'0 0.0
2017-Dec-14 11:30N 40°38' W 074°09'0 0.0
2017-Dec-14 11:00N 40°38' W 074°09'0 0.0
2017-Dec-14 10:30N 40°38' W 074°09'0 0.0
2017-Dec-14 10:00N 40°38' W 074°09'0 0.0
2017-Dec-14 09:30N 40°38' W 074°09'0 0.0
2017-Dec-14 08:30N 40°38' W 074°09'0 0.0
2017-Dec-14 08:00N 40°38' W 074°09'0 0.0
2017-Dec-14 07:30N 40°38' W 074°09'0 0.0
2017-Dec-14 06:59N 40°38' W 074°09'0 0.0
2017-Dec-14 06:30N 40°38' W 074°09'0 0.0
2017-Dec-14 06:00N 40°38' W 074°09'0 0.0
2017-Dec-14 05:30N 40°38' W 074°09'0 0.0
2017-Dec-14 05:00N 40°38' W 074°09'0 0.0
2017-Dec-14 04:30N 40°38' W 074°09'0 0.0
2017-Dec-14 03:59N 40°38' W 074°09'0 0.0
2017-Dec-14 03:30N 40°38' W 074°09'0 0.0
2017-Dec-14 03:00N 40°38' W 074°09'0 0.0
2017-Dec-14 02:30N 40°38' W 074°09'0 0.0
2017-Dec-14 01:59N 40°38' W 074°09'0 0.0
2017-Dec-14 01:30N 40°38' W 074°09'0 0.0
2017-Dec-14 01:00N 40°38' W 074°09'0 0.0
2017-Dec-14 00:30N 40°38' W 074°09'0 0.0
2017-Dec-14 00:00N 40°38' W 074°09'0 0.0
2017-Dec-13 23:30N 40°38' W 074°09'0 0.0
2017-Dec-13 23:00N 40°38' W 074°09'0 0.0
2017-Dec-13 22:30N 40°38' W 074°09'0 0.0
2017-Dec-13 22:00N 40°38' W 074°09'0 0.0
2017-Dec-13 21:29N 40°38' W 074°09'0 0.5
2017-Dec-13 21:00N 40°38' W 074°09'0 0.8
2017-Dec-13 20:30N 40°38' W 074°09'0 0.7
2017-Dec-13 20:00N 40°38' W 074°09'0 0.2
2017-Dec-13 19:30N 40°38' W 074°09'2 3.1
2017-Dec-13 19:00N 40°40' W 074°08'0 0.2
2017-Dec-13 18:30N 40°40' W 074°08'0 0.2
2017-Dec-13 18:00N 40°40' W 074°08'0 0.0
2017-Dec-13 17:30N 40°40' W 074°08'0 0.0
2017-Dec-13 17:00N 40°40' W 074°08'0 0.0
2017-Dec-13 16:30N 40°40' W 074°08'0 0.0
2017-Dec-13 16:00N 40°40' W 074°08'0 0.0
2017-Dec-13 15:30N 40°40' W 074°08'0 0.0
2017-Dec-13 15:00N 40°40' W 074°08'0 0.0
2017-Dec-13 14:30N 40°40' W 074°08'0 0.1
2017-Dec-13 14:00N 40°40' W 074°08'1 3.0
2017-Dec-13 13:30N 40°39' W 074°09'0 0.3
2017-Dec-13 13:00N 40°38' W 074°09'0 0.0
2017-Dec-13 12:30N 40°38' W 074°09'0 0.0
2017-Dec-13 12:00N 40°38' W 074°09'0 0.0
2017-Dec-13 11:30N 40°38' W 074°09'0 0.0
2017-Dec-13 11:00N 40°38' W 074°09'0 0.0
2017-Dec-13 10:30N 40°38' W 074°09'0 0.0
2017-Dec-13 10:00N 40°38' W 074°09'0 0.0
2017-Dec-13 09:30N 40°38' W 074°09'0 0.0
2017-Dec-13 09:00N 40°38' W 074°09'0 0.0
2017-Dec-13 08:30N 40°38' W 074°09'0 0.0
2017-Dec-13 08:00N 40°38' W 074°09'0 0.0
2017-Dec-13 07:30N 40°38' W 074°09'0 0.0
2017-Dec-13 07:00N 40°38' W 074°09'0 0.0
2017-Dec-13 06:30N 40°38' W 074°09'0 0.0
2017-Dec-13 06:00N 40°38' W 074°09'0 0.0
2017-Dec-13 05:30N 40°38' W 074°09'0 0.0
2017-Dec-13 05:00N 40°38' W 074°09'0 0.0
2017-Dec-13 04:30N 40°38' W 074°09'0 0.0
2017-Dec-13 04:00N 40°38' W 074°09'0 0.0
2017-Dec-13 03:30N 40°38' W 074°09'1 1.7
2017-Dec-13 03:00N 40°39' W 074°10'0 0.1
2017-Dec-13 02:30N 40°39' W 074°10'0 0.0
2017-Dec-13 02:00N 40°39' W 074°10'0 0.0
2017-Dec-13 01:30N 40°39' W 074°10'0 0.0
2017-Dec-13 01:00N 40°39' W 074°10'0 0.0
2017-Dec-13 00:30N 40°39' W 074°10'0 0.8
2017-Dec-13 00:00N 40°38' W 074°09'0 0.7
2017-Dec-12 23:30N 40°38' W 074°09'0 0.0
2017-Dec-12 23:00N 40°38' W 074°09'0 0.0
2017-Dec-12 22:29N 40°38' W 074°09'0 0.0
2017-Dec-12 22:00N 40°38' W 074°09'0 0.0
2017-Dec-12 21:30N 40°38' W 074°09'0 0.0
2017-Dec-12 21:00N 40°38' W 074°09'0 0.0
2017-Dec-12 20:30N 40°38' W 074°09'0 0.0
2017-Dec-12 20:00N 40°38' W 074°09'0 0.5
2017-Dec-12 19:30N 40°38' W 074°09'0 0.1
2017-Dec-12 19:00N 40°38' W 074°09'0 0.0
2017-Dec-12 18:30N 40°38' W 074°09'0 0.0
2017-Dec-12 18:00N 40°38' W 074°09'0 0.0
2017-Dec-12 17:30N 40°38' W 074°09'0 0.1
2017-Dec-12 17:00N 40°38' W 074°09'0 0.0
2017-Dec-12 16:30N 40°38' W 074°09'0 0.0
2017-Dec-12 16:00N 40°38' W 074°09'0 0.0
2017-Dec-12 15:30N 40°38' W 074°09'0 0.1
2017-Dec-12 15:00N 40°38' W 074°09'0 0.1
2017-Dec-12 14:30N 40°38' W 074°09'0 0.1
2017-Dec-12 14:00N 40°38' W 074°09'0 0.1
2017-Dec-12 13:30N 40°38' W 074°09'0 0.1
2017-Dec-12 13:00N 40°38' W 074°09'0 0.0
2017-Dec-12 12:30N 40°38' W 074°09'0 0.0
2017-Dec-12 12:00N 40°38' W 074°09'0 0.0
2017-Dec-12 11:30N 40°38' W 074°09'0 0.0
2017-Dec-12 11:00N 40°38' W 074°09'0 0.0
2017-Dec-12 10:30N 40°38' W 074°09'0 0.0
2017-Dec-12 10:00N 40°38' W 074°09'0 0.0
2017-Dec-12 09:30N 40°38' W 074°09'0 0.0
2017-Dec-12 09:00N 40°38' W 074°09'0 0.0
2017-Dec-12 08:30N 40°38' W 074°09'0 0.0
2017-Dec-12 08:00N 40°38' W 074°09'0 0.0
2017-Dec-12 07:30N 40°38' W 074°09'0 0.0
2017-Dec-12 07:00N 40°38' W 074°09'0 0.0
2017-Dec-12 06:30N 40°38' W 074°09'0 0.0
2017-Dec-12 06:00N 40°38' W 074°09'1 1.2
2017-Dec-12 05:30N 40°39' W 074°08'4 7.4
2017-Dec-12 05:00N 40°39' W 074°03'3 6.0
2017-Dec-12 04:30N 40°41' W 074°01'3 5.5
2017-Dec-12 04:00N 40°44' W 073°58'4 7.0
2017-Dec-12 03:30N 40°47' W 073°56'3 6.3
2017-Dec-12 03:00N 40°48' W 073°52'3 6.4
2017-Dec-12 02:30N 40°48' W 073°48'3 5.3
2017-Dec-12 02:00N 40°50' W 073°46'4 0.1
2017-Dec-10 16:27N 40°54' W 073°44'4 9.7
2017-Dec-10 15:59N 40°50' W 073°46'4 8.4
2017-Dec-10 15:30N 40°48' W 073°51'5 9.6
2017-Dec-10 15:00N 40°46' W 073°57'4 8.6
2017-Dec-10 14:30N 40°42' W 073°60'4 8.3
2017-Dec-10 14:00N 40°39' W 074°03'4 8.4
2017-Dec-10 13:30N 40°39' W 074°09'2 3.3
2017-Dec-10 13:00N 40°40' W 074°08'1 2.2
2017-Dec-10 12:30N 40°39' W 074°09'3 5.3
2017-Dec-10 12:00N 40°39' W 074°05'4 7.0
2017-Dec-10 11:30N 40°41' W 074°01'4 7.9
2017-Dec-10 11:00N 40°44' W 073°58'4 8.5
2017-Dec-10 10:30N 40°47' W 073°55'4 7.2
2017-Dec-10 09:59N 40°48' W 073°50'3 6.1
2017-Dec-10 09:29N 40°50' W 073°47'3 7.1
2017-Dec-10 09:00N 40°53' W 073°45'  
2017-Dec-07 23:12N 41°12' W 072°48'1 1.8
2017-Dec-07 22:54N 41°12' W 072°47'2 4.6
2017-Dec-07 22:30N 41°13' W 072°44'2 4.4
2017-Dec-07 22:00N 41°13' W 072°42'2 4.3
2017-Dec-07 21:30N 41°14' W 072°39'2 4.5
2017-Dec-07 21:00N 41°15' W 072°36'2 3.7
2017-Dec-07 20:30N 41°15' W 072°34'0 0.5
2017-Dec-07 20:00N 41°15' W 072°34'5 9.9
2017-Dec-07 19:30N 41°14' W 072°40'7 0.4
2017-Dec-06 23:25N 41°12' W 072°49'2 4.9
2017-Dec-06 22:59N 41°12' W 072°47'3 6.1
2017-Dec-06 22:30N 41°13' W 072°43'3 5.9
2017-Dec-06 22:00N 41°14' W 072°39'3 5.8
2017-Dec-06 21:30N 41°15' W 072°35'1 2.7
2017-Dec-06 21:00N 41°16' W 072°34'  
Track history (hours):
 
Tides and Currents Weather Stations Pressure Air Temp Water Temp Dewpoint Dewpoint Depression Visibility Wind Speed Wind Dir Waves Ship Positions

Larry J. Hebert

Owner: Gulf Coast Tugs, Inc., Larose, LA. More information available from US FCC via Universal Licensing System and Coast Guard Vessel Documentation Center.

Last reported at 2017-Dec-15 17:41 UTC. Time now 2017-Dec-15 18:16 UTC.
Position N 38°52' W 074°54'.

Length 28 m; draft 2.3 m.

Type: Tug. MMSI: 367469050.

Date/timePositionNaut miles runAvg speedWind from/ knotsBaromVisibWave heightAir tempDewpointWater temp
2017-Dec-15 17:41N 38°52' W 074°54'2 9.9
2017-Dec-15 17:28N 38°54' W 074°52'6 9.8
2017-Dec-15 16:49N 38°59' W 074°47'3 9.7
2017-Dec-15 16:30N 39°01' W 074°45'12 9.6
2017-Dec-15 15:14N 39°12' W 074°37'27 9.6
2017-Dec-15 12:24N 39°32' W 074°13'4 9.8
2017-Dec-15 12:00N 39°35' W 074°10'5 9.9
2017-Dec-15 11:30N 39°40' W 074°08'5 9.8
2017-Dec-15 11:00N 39°44' W 074°05'5 9.7
2017-Dec-15 10:30N 39°49' W 074°04'5 9.9
2017-Dec-15 09:58N 39°54' W 074°03'26 9.7
2017-Dec-15 07:14N 40°20' W 073°56'410.0
2017-Dec-15 06:47N 40°24' W 073°55'3 9.6
2017-Dec-15 06:28N 40°28' W 073°55'4 9.7
2017-Dec-15 06:00N 40°31' W 073°59'510.5
2017-Dec-15 05:30N 40°35' W 074°02'4 8.9
2017-Dec-15 05:00N 40°39' W 074°06'1 1.1
2017-Dec-15 04:30N 40°39' W 074°07'0 0.1
2017-Dec-15 04:00N 40°39' W 074°07'0 0.0
2017-Dec-15 02:30N 40°39' W 074°07'2 1.0
2017-Dec-15 01:00N 40°38' W 074°09'0 0.0
2017-Dec-15 00:30N 40°38' W 074°09'0 0.0
2017-Dec-14 18:30N 40°38' W 074°09'0 0.0
2017-Dec-14 18:00N 40°38' W 074°09'0 0.0
2017-Dec-14 17:30N 40°38' W 074°09'0 0.0
2017-Dec-14 17:00N 40°38' W 074°09'0 0.0
2017-Dec-14 16:30N 40°38' W 074°09'0 0.0
2017-Dec-14 15:59N 40°38' W 074°09'0 0.0
2017-Dec-14 15:00N 40°38' W 074°09'0 0.0
2017-Dec-14 14:30N 40°38' W 074°09'0 0.0
2017-Dec-14 14:00N 40°38' W 074°09'0 0.0
2017-Dec-14 13:30N 40°38' W 074°09'0 0.0
2017-Dec-14 13:00N 40°38' W 074°09'0 0.0
2017-Dec-14 12:29N 40°38' W 074°09'0 0.0
2017-Dec-14 12:00N 40°38' W 074°09'0 0.0
2017-Dec-14 11:30N 40°38' W 074°09'0 0.0
2017-Dec-14 11:00N 40°38' W 074°09'0 0.0
2017-Dec-14 10:30N 40°38' W 074°09'0 0.0
2017-Dec-14 10:00N 40°38' W 074°09'0 0.0
2017-Dec-14 09:30N 40°38' W 074°09'0 0.0
2017-Dec-14 08:30N 40°38' W 074°09'0 0.0
2017-Dec-14 08:00N 40°38' W 074°09'0 0.0
2017-Dec-14 07:30N 40°38' W 074°09'0 0.0
2017-Dec-14 06:59N 40°38' W 074°09'0 0.0
2017-Dec-14 06:30N 40°38' W 074°09'0 0.0
2017-Dec-14 06:00N 40°38' W 074°09'0 0.0
2017-Dec-14 05:30N 40°38' W 074°09'0 0.0
2017-Dec-14 05:00N 40°38' W 074°09'0 0.0
2017-Dec-14 04:30N 40°38' W 074°09'0 0.0
2017-Dec-14 03:59N 40°38' W 074°09'0 0.0
2017-Dec-14 03:30N 40°38' W 074°09'0 0.0
2017-Dec-14 03:00N 40°38' W 074°09'0 0.0
2017-Dec-14 02:30N 40°38' W 074°09'0 0.0
2017-Dec-14 01:59N 40°38' W 074°09'0 0.0
2017-Dec-14 01:30N 40°38' W 074°09'0 0.0
2017-Dec-14 01:00N 40°38' W 074°09'0 0.0
2017-Dec-14 00:30N 40°38' W 074°09'0 0.0
2017-Dec-14 00:00N 40°38' W 074°09'0 0.0
2017-Dec-13 23:30N 40°38' W 074°09'0 0.0
2017-Dec-13 23:00N 40°38' W 074°09'0 0.0
2017-Dec-13 22:30N 40°38' W 074°09'0 0.0
2017-Dec-13 22:00N 40°38' W 074°09'0 0.0
2017-Dec-13 21:29N 40°38' W 074°09'0 0.5
2017-Dec-13 21:00N 40°38' W 074°09'0 0.8
2017-Dec-13 20:30N 40°38' W 074°09'0 0.7
2017-Dec-13 20:00N 40°38' W 074°09'0 0.2
2017-Dec-13 19:30N 40°38' W 074°09'2 3.1
2017-Dec-13 19:00N 40°40' W 074°08'0 0.2
2017-Dec-13 18:30N 40°40' W 074°08'0 0.2
2017-Dec-13 18:00N 40°40' W 074°08'0 0.0
2017-Dec-13 17:30N 40°40' W 074°08'0 0.0
2017-Dec-13 17:00N 40°40' W 074°08'0 0.0
2017-Dec-13 16:30N 40°40' W 074°08'0 0.0
2017-Dec-13 16:00N 40°40' W 074°08'0 0.0
2017-Dec-13 15:30N 40°40' W 074°08'0 0.0
2017-Dec-13 15:00N 40°40' W 074°08'0 0.0
2017-Dec-13 14:30N 40°40' W 074°08'0 0.1
2017-Dec-13 14:00N 40°40' W 074°08'1 3.0
2017-Dec-13 13:30N 40°39' W 074°09'0 0.3
2017-Dec-13 13:00N 40°38' W 074°09'0 0.0
2017-Dec-13 12:30N 40°38' W 074°09'0 0.0
2017-Dec-13 12:00N 40°38' W 074°09'0 0.0
2017-Dec-13 11:30N 40°38' W 074°09'0 0.0
2017-Dec-13 11:00N 40°38' W 074°09'0 0.0
2017-Dec-13 10:30N 40°38' W 074°09'0 0.0
2017-Dec-13 10:00N 40°38' W 074°09'0 0.0
2017-Dec-13 09:30N 40°38' W 074°09'0 0.0
2017-Dec-13 09:00N 40°38' W 074°09'0 0.0
2017-Dec-13 08:30N 40°38' W 074°09'0 0.0
2017-Dec-13 08:00N 40°38' W 074°09'0 0.0
2017-Dec-13 07:30N 40°38' W 074°09'0 0.0
2017-Dec-13 07:00N 40°38' W 074°09'0 0.0
2017-Dec-13 06:30N 40°38' W 074°09'0 0.0
2017-Dec-13 06:00N 40°38' W 074°09'0 0.0
2017-Dec-13 05:30N 40°38' W 074°09'0 0.0
2017-Dec-13 05:00N 40°38' W 074°09'0 0.0
2017-Dec-13 04:30N 40°38' W 074°09'0 0.0
2017-Dec-13 04:00N 40°38' W 074°09'0 0.0
2017-Dec-13 03:30N 40°38' W 074°09'1 1.7
2017-Dec-13 03:00N 40°39' W 074°10'0 0.1
2017-Dec-13 02:30N 40°39' W 074°10'0 0.0
2017-Dec-13 02:00N 40°39' W 074°10'0 0.0
2017-Dec-13 01:30N 40°39' W 074°10'0 0.0
2017-Dec-13 01:00N 40°39' W 074°10'0 0.0
2017-Dec-13 00:30N 40°39' W 074°10'0 0.8
2017-Dec-13 00:00N 40°38' W 074°09'0 0.7
2017-Dec-12 23:30N 40°38' W 074°09'0 0.0
2017-Dec-12 23:00N 40°38' W 074°09'0 0.0
2017-Dec-12 22:29N 40°38' W 074°09'0 0.0
2017-Dec-12 22:00N 40°38' W 074°09'0 0.0
2017-Dec-12 21:30N 40°38' W 074°09'0 0.0
2017-Dec-12 21:00N 40°38' W 074°09'0 0.0
2017-Dec-12 20:30N 40°38' W 074°09'0 0.0
2017-Dec-12 20:00N 40°38' W 074°09'0 0.5
2017-Dec-12 19:30N 40°38' W 074°09'0 0.1
2017-Dec-12 19:00N 40°38' W 074°09'0 0.0
2017-Dec-12 18:30N 40°38' W 074°09'0 0.0
2017-Dec-12 18:00N 40°38' W 074°09'0 0.0
2017-Dec-12 17:30N 40°38' W 074°09'0 0.1
2017-Dec-12 17:00N 40°38' W 074°09'0 0.0
2017-Dec-12 16:30N 40°38' W 074°09'0 0.0
2017-Dec-12 16:00N 40°38' W 074°09'0 0.0
2017-Dec-12 15:30N 40°38' W 074°09'0 0.1
2017-Dec-12 15:00N 40°38' W 074°09'0 0.1
2017-Dec-12 14:30N 40°38' W 074°09'0 0.1
2017-Dec-12 14:00N 40°38' W 074°09'0 0.1
2017-Dec-12 13:30N 40°38' W 074°09'0 0.1
2017-Dec-12 13:00N 40°38' W 074°09'0 0.0
2017-Dec-12 12:30N 40°38' W 074°09'0 0.0
2017-Dec-12 12:00N 40°38' W 074°09'0 0.0
2017-Dec-12 11:30N 40°38' W 074°09'0 0.0
2017-Dec-12 11:00N 40°38' W 074°09'0 0.0
2017-Dec-12 10:30N 40°38' W 074°09'0 0.0
2017-Dec-12 10:00N 40°38' W 074°09'0 0.0
2017-Dec-12 09:30N 40°38' W 074°09'0 0.0
2017-Dec-12 09:00N 40°38' W 074°09'0 0.0
2017-Dec-12 08:30N 40°38' W 074°09'0 0.0
2017-Dec-12 08:00N 40°38' W 074°09'0 0.0
2017-Dec-12 07:30N 40°38' W 074°09'0 0.0
2017-Dec-12 07:00N 40°38' W 074°09'0 0.0
2017-Dec-12 06:30N 40°38' W 074°09'0 0.0
2017-Dec-12 06:00N 40°38' W 074°09'1 1.2
2017-Dec-12 05:30N 40°39' W 074°08'4 7.4
2017-Dec-12 05:00N 40°39' W 074°03'3 6.0
2017-Dec-12 04:30N 40°41' W 074°01'3 5.5
2017-Dec-12 04:00N 40°44' W 073°58'4 7.0
2017-Dec-12 03:30N 40°47' W 073°56'3 6.3
2017-Dec-12 03:00N 40°48' W 073°52'3 6.4
2017-Dec-12 02:30N 40°48' W 073°48'3 5.3
2017-Dec-12 02:00N 40°50' W 073°46'4 0.1
2017-Dec-10 16:27N 40°54' W 073°44'4 9.7
2017-Dec-10 15:59N 40°50' W 073°46'4 8.4
2017-Dec-10 15:30N 40°48' W 073°51'5 9.6
2017-Dec-10 15:00N 40°46' W 073°57'4 8.6
2017-Dec-10 14:30N 40°42' W 073°60'4 8.3
2017-Dec-10 14:00N 40°39' W 074°03'4 8.4
2017-Dec-10 13:30N 40°39' W 074°09'2 3.3
2017-Dec-10 13:00N 40°40' W 074°08'1 2.2
2017-Dec-10 12:30N 40°39' W 074°09'3 5.3
2017-Dec-10 12:00N 40°39' W 074°05'4 7.0
2017-Dec-10 11:30N 40°41' W 074°01'4 7.9
2017-Dec-10 11:00N 40°44' W 073°58'4 8.5
2017-Dec-10 10:30N 40°47' W 073°55'4 7.2
2017-Dec-10 09:59N 40°48' W 073°50'3 6.1
2017-Dec-10 09:29N 40°50' W 073°47'3 7.1
2017-Dec-10 09:00N 40°53' W 073°45'  
2017-Dec-07 23:12N 41°12' W 072°48'1 1.8
2017-Dec-07 22:54N 41°12' W 072°47'2 4.6
2017-Dec-07 22:30N 41°13' W 072°44'2 4.4
2017-Dec-07 22:00N 41°13' W 072°42'2 4.3
2017-Dec-07 21:30N 41°14' W 072°39'2 4.5
2017-Dec-07 21:00N 41°15' W 072°36'2 3.7
2017-Dec-07 20:30N 41°15' W 072°34'0 0.5
2017-Dec-07 20:00N 41°15' W 072°34'5 9.9
2017-Dec-07 19:30N 41°14' W 072°40'7 0.4
2017-Dec-06 23:25N 41°12' W 072°49'2 4.9
2017-Dec-06 22:59N 41°12' W 072°47'3 6.1
2017-Dec-06 22:30N 41°13' W 072°43'3 5.9
2017-Dec-06 22:00N 41°14' W 072°39'3 5.8
2017-Dec-06 21:30N 41°15' W 072°35'1 2.7
2017-Dec-06 21:00N 41°16' W 072°34'  

Dump ship's entire track history